Time;durP1;ratioP1;P1;durP2;ratioP2;P2;SDS_P1;SDS_P2;PMS_P1;PMS_P2;Temp;Humidity;BMP_temperature;BMP_pressure;BME280_temperature;BME280_humidity;BME280_pressure;Samples;Min_cycle;Max_cycle;Signal;HPM_P1;HPM_P2
2023/04/21 00:01:26;;;;;;;6.57;2.47;;;5.10;99.90;;;;;;5073481;28;20486;-81
2023/04/21 00:03:54;;;;;;;8.63;3.23;;;5.10;99.90;;;;;;5073447;28;20936;-81
2023/04/21 00:06:21;;;;;;;1.23;1.10;;;5.20;99.90;;;;;;5073555;28;20491;-81
2023/04/21 00:08:48;;;;;;;2.77;0.80;;;5.20;99.90;;;;;;5073731;28;20536;-81
2023/04/21 00:11:17;;;;;;;4.53;1.30;;;5.20;99.90;;;;;;5073652;28;20466;-81
2023/04/21 00:13:44;;;;;;;1.33;0.90;;;5.10;99.90;;;;;;5073674;28;20442;-80
2023/04/21 00:16:11;;;;;;;1.23;1.10;;;5.10;99.90;;;;;;5073643;28;20456;-81
2023/04/21 00:18:37;;;;;;;4.00;1.30;;;5.10;99.90;;;;;;5073608;28;20473;-80
2023/04/21 00:21:05;;;;;;;5.90;1.43;;;5.10;99.90;;;;;;5073648;28;20591;-81
2023/04/21 00:23:31;;;;;;;2.10;1.30;;;5.10;99.90;;;;;;5073546;28;20438;-81
2023/04/21 00:26:01;;;;;;;3.23;1.67;;;5.10;99.90;;;;;;5073455;28;20481;-81
2023/04/21 00:28:29;;;;;;;2.43;1.00;;;5.20;99.90;;;;;;5073546;28;20495;-79
2023/04/21 00:30:56;;;;;;;4.10;1.47;;;5.20;99.90;;;;;;5073076;28;20469;-79
2023/04/21 00:33:23;;;;;;;1.40;1.00;;;5.10;99.90;;;;;;5073332;28;20453;-79
2023/04/21 00:35:49;;;;;;;1.47;1.37;;;5.20;99.90;;;;;;5072584;28;20453;-80
2023/04/21 00:38:16;;;;;;;1.80;1.17;;;5.20;99.90;;;;;;5073424;28;20524;-80
2023/04/21 00:40:43;;;;;;;1.83;1.57;;;5.20;99.90;;;;;;5073371;28;20468;-81
2023/04/21 00:43:09;;;;;;;2.40;1.40;;;5.20;99.90;;;;;;5073136;28;20517;-80
2023/04/21 00:45:38;;;;;;;3.30;1.17;;;5.10;99.90;;;;;;5073263;28;20473;-80
2023/04/21 00:48:05;;;;;;;1.50;1.10;;;5.10;99.90;;;;;;5073302;28;20453;-79
2023/04/21 00:50:32;;;;;;;4.77;2.00;;;5.00;99.90;;;;;;5073223;28;20539;-79
2023/04/21 00:52:59;;;;;;;3.20;1.30;;;5.10;99.90;;;;;;5073233;28;20472;-80
2023/04/21 00:55:26;;;;;;;1.47;1.37;;;5.10;99.90;;;;;;5073189;28;20454;-79
2023/04/21 00:57:55;;;;;;;0.53;0.53;;;5.10;99.90;;;;;;5072905;28;20445;-81
2023/04/21 01:00:21;;;;;;;1.90;1.83;;;5.00;99.90;;;;;;5072856;28;20500;-81
2023/04/21 01:02:50;;;;;;;2.40;1.30;;;4.90;99.90;;;;;;5072892;28;20441;-81
2023/04/21 01:05:17;;;;;;;2.60;1.17;;;4.90;99.90;;;;;;5072836;28;20497;-81
2023/04/21 01:07:44;;;;;;;7.50;1.07;;;4.80;99.90;;;;;;5073173;28;20456;-81
2023/04/21 01:10:11;;;;;;;1.80;1.20;;;4.70;99.90;;;;;;5073035;28;20527;-81
2023/04/21 01:12:45;;;;;;;1.13;1.03;;;4.60;99.90;;;;;;5073082;28;20446;-81
2023/04/21 01:15:12;;;;;;;1.20;1.10;;;4.70;99.90;;;;;;5073047;28;20864;-81
2023/04/21 01:17:39;;;;;;;4.10;2.20;;;4.70;99.90;;;;;;5073029;28;20445;-81
2023/04/21 01:20:12;;;;;;;1.23;0.90;;;4.70;99.90;;;;;;5072682;28;20529;-81
2023/04/21 01:22:43;;;;;;;0.63;0.60;;;4.70;99.90;;;;;;5073008;28;20522;-81
2023/04/21 01:25:10;;;;;;;8.47;1.97;;;4.70;99.90;;;;;;5072633;28;20988;-81
2023/04/21 01:27:37;;;;;;;3.07;2.10;;;4.60;99.90;;;;;;5072937;28;20454;-81
2023/04/21 01:30:07;;;;;;;1.67;1.57;;;4.60;99.90;;;;;;5072852;28;20478;-81
2023/04/21 01:32:34;;;;;;;2.70;0.80;;;4.50;99.90;;;;;;5072907;28;20433;-81
2023/04/21 01:35:01;;;;;;;3.13;1.53;;;4.50;99.90;;;;;;5072575;28;21019;-81
2023/04/21 01:37:30;;;;;;;1.10;1.00;;;4.50;99.90;;;;;;5072888;28;20445;-81
2023/04/21 01:40:00;;;;;;;0.83;0.80;;;4.50;99.90;;;;;;5072454;28;20822;-81
2023/04/21 01:42:30;;;;;;;2.00;0.90;;;4.50;99.90;;;;;;5072886;28;20503;-81
2023/04/21 01:44:57;;;;;;;0.80;0.50;;;4.60;99.90;;;;;;5072703;28;20488;-81
2023/04/21 01:47:25;;;;;;;1.43;1.33;;;4.60;99.90;;;;;;5075983;28;20449;-81
2023/04/21 01:49:52;;;;;;;3.53;0.97;;;4.70;99.90;;;;;;5076307;28;20506;-81
2023/04/21 01:52:19;;;;;;;1.63;1.00;;;4.70;99.90;;;;;;5076316;28;20445;-81
2023/04/21 01:54:45;;;;;;;2.10;0.80;;;4.70;99.90;;;;;;5076015;28;20956;-81
2023/04/21 01:57:14;;;;;;;4.20;0.93;;;4.70;99.90;;;;;;5076236;28;20476;-81
2023/04/21 01:59:40;;;;;;;2.07;0.80;;;4.70;99.90;;;;;;5075659;28;20452;-81
2023/04/21 02:02:07;;;;;;;3.90;1.07;;;4.70;99.90;;;;;;5075890;28;20834;-81
2023/04/21 02:04:34;;;;;;;1.60;0.83;;;4.70;99.90;;;;;;5076068;28;20441;-81
2023/04/21 02:07:01;;;;;;;0.90;0.90;;;4.80;99.90;;;;;;5075865;28;20434;-81
2023/04/21 02:09:28;;;;;;;0.50;0.40;;;4.70;99.90;;;;;;5076061;28;20445;-81
2023/04/21 02:11:56;;;;;;;1.17;0.83;;;4.70;99.90;;;;;;5076094;28;20465;-81
2023/04/21 02:14:25;;;;;;;0.60;0.60;;;4.70;99.90;;;;;;5078057;28;20450;-81
2023/04/21 02:16:51;;;;;;;0.50;0.50;;;4.70;99.90;;;;;;5076944;28;20452;-81
2023/04/21 02:19:18;;;;;;;3.40;1.50;;;4.70;99.90;;;;;;5075901;28;20441;-81
2023/04/21 02:21:45;;;;;;;2.90;0.90;;;4.70;99.90;;;;;;5075761;28;20469;-81
2023/04/21 02:24:12;;;;;;;1.13;1.03;;;4.70;99.90;;;;;;5075756;28;20456;-81
2023/04/21 02:26:38;;;;;;;0.80;0.80;;;4.80;99.90;;;;;;5075681;28;20473;-80
2023/04/21 02:29:05;;;;;;;1.27;0.83;;;4.80;99.90;;;;;;5075424;28;20956;-81
2023/04/21 02:31:33;;;;;;;0.50;0.50;;;4.80;99.90;;;;;;5075267;28;20473;-81
2023/04/21 02:34:00;;;;;;;0.63;0.63;;;4.80;99.90;;;;;;5075582;28;20454;-81
2023/04/21 02:36:27;;;;;;;1.70;0.87;;;4.80;99.90;;;;;;5075793;28;20772;-81
2023/04/21 02:38:54;;;;;;;2.53;0.67;;;4.80;99.90;;;;;;5075504;28;20450;-81
2023/04/21 02:41:22;;;;;;;0.70;0.70;;;4.80;99.90;;;;;;5075078;28;20477;-81
2023/04/21 02:43:48;;;;;;;3.03;0.77;;;4.70;99.90;;;;;;5075415;28;20497;-81
2023/04/21 02:46:15;;;;;;;1.10;1.00;;;4.70;99.90;;;;;;5075314;28;20478;-81
2023/04/21 02:48:43;;;;;;;0.70;0.70;;;4.70;99.90;;;;;;5075344;28;20453;-81
2023/04/21 02:51:12;;;;;;;4.17;0.80;;;4.70;99.90;;;;;;5074898;28;20476;-81
2023/04/21 02:53:39;;;;;;;1.10;1.10;;;4.70;99.90;;;;;;5075242;28;20449;-81
2023/04/21 02:56:07;;;;;;;1.17;0.87;;;4.70;99.90;;;;;;5075159;28;20454;-81
2023/04/21 02:58:34;;;;;;;1.97;0.70;;;4.60;99.90;;;;;;5074079;28;20476;-81
2023/04/21 03:01:02;;;;;;;3.83;1.13;;;4.60;99.90;;;;;;5074788;28;20543;-81
2023/04/21 03:03:29;;;;;;;0.60;0.60;;;4.60;99.90;;;;;;5074649;28;20461;-81
2023/04/21 03:06:01;;;;;;;1.07;0.80;;;4.60;99.90;;;;;;5074888;28;20485;-81
2023/04/21 03:08:28;;;;;;;2.47;1.27;;;4.40;99.90;;;;;;5074925;28;20446;-81
2023/04/21 03:10:55;;;;;;;0.50;0.50;;;4.30;99.90;;;;;;5074765;28;20478;-81
2023/04/21 03:13:22;;;;;;;1.90;0.73;;;4.20;99.90;;;;;;5074517;28;20813;-81
2023/04/21 03:15:49;;;;;;;1.40;1.30;;;4.20;99.90;;;;;;5074691;28;20456;-81
2023/04/21 03:18:16;;;;;;;0.77;0.77;;;4.10;99.90;;;;;;5074558;28;20456;-81
2023/04/21 03:20:43;;;;;;;1.00;0.93;;;4.10;99.90;;;;;;5074298;28;20502;-81
2023/04/21 03:23:11;;;;;;;2.70;1.53;;;4.10;99.90;;;;;;5075151;28;20445;-81
2023/04/21 03:25:38;;;;;;;0.67;0.67;;;4.10;99.90;;;;;;5074531;28;20481;-81
2023/04/21 03:28:05;;;;;;;1.13;0.60;;;4.10;99.90;;;;;;5075228;28;20461;-81
2023/04/21 03:30:32;;;;;;;1.20;1.20;;;4.10;99.90;;;;;;5074470;28;20470;-81
2023/04/21 03:32:59;;;;;;;1.13;0.50;;;4.00;99.90;;;;;;5074162;28;20446;-81
2023/04/21 03:35:27;;;;;;;3.70;0.97;;;4.10;99.90;;;;;;5074338;28;20840;-81
2023/04/21 03:37:54;;;;;;;0.90;0.90;;;4.00;99.90;;;;;;5074575;28;20445;-81
2023/04/21 03:40:22;;;;;;;2.00;1.37;;;4.00;99.90;;;;;;5073954;28;20454;-81
2023/04/21 03:42:49;;;;;;;2.00;1.13;;;4.00;99.90;;;;;;5073931;28;21007;-81
2023/04/21 03:45:18;;;;;;;2.00;0.50;;;4.00;99.90;;;;;;5074111;28;20484;-81
2023/04/21 03:47:45;;;;;;;2.53;0.80;;;4.00;99.90;;;;;;5073822;28;21007;-81
2023/04/21 03:50:11;;;;;;;1.23;1.00;;;4.00;99.90;;;;;;5073924;28;20468;-80
2023/04/21 03:52:38;;;;;;;2.03;1.53;;;4.00;99.90;;;;;;5073745;28;20988;-80
2023/04/21 03:55:07;;;;;;;2.10;0.90;;;4.00;99.90;;;;;;5074036;28;20453;-81
2023/04/21 03:57:35;;;;;;;1.93;1.23;;;3.90;99.90;;;;;;5073995;28;20449;-81
2023/04/21 04:00:04;;;;;;;1.13;1.03;;;3.90;99.90;;;;;;5073679;28;20579;-81
2023/04/21 04:02:30;;;;;;;1.43;1.30;;;3.90;99.90;;;;;;5073983;28;20479;-81
2023/04/21 04:04:57;;;;;;;3.93;0.90;;;3.80;99.90;;;;;;5075937;28;20810;-81
2023/04/21 04:07:25;;;;;;;2.17;0.70;;;3.80;99.90;;;;;;5075835;28;20485;-81
2023/04/21 04:09:51;;;;;;;1.60;1.50;;;3.70;99.90;;;;;;5073330;28;20453;-81
2023/04/21 04:12:18;;;;;;;3.00;1.73;;;3.70;99.90;;;;;;5073741;28;20453;-81
2023/04/21 04:14:46;;;;;;;1.80;1.17;;;3.70;99.90;;;;;;5073721;28;20450;-81
2023/04/21 04:17:13;;;;;;;3.80;1.00;;;3.80;99.90;;;;;;5073714;28;20450;-81
2023/04/21 04:19:39;;;;;;;1.73;1.63;;;3.80;99.90;;;;;;5073596;28;20462;-81
2023/04/21 04:22:06;;;;;;;1.43;0.50;;;3.70;99.90;;;;;;5073352;28;20983;-81
2023/04/21 04:24:34;;;;;;;3.60;1.60;;;3.70;99.90;;;;;;5073272;28;20460;-81
2023/04/21 04:27:02;;;;;;;5.90;2.10;;;3.70;99.90;;;;;;5073498;28;20481;-81
2023/04/21 04:29:29;;;;;;;3.03;1.40;;;3.70;99.90;;;;;;5073546;28;20445;-81
2023/04/21 04:31:59;;;;;;;1.37;1.23;;;3.80;99.90;;;;;;5073463;28;20461;-81
2023/04/21 04:34:26;;;;;;;1.30;1.20;;;3.80;99.90;;;;;;5073563;28;20532;-81
2023/04/21 04:36:53;;;;;;;4.27;0.90;;;3.80;99.90;;;;;;5073441;28;20453;-81
2023/04/21 04:39:21;;;;;;;0.70;0.60;;;3.80;99.90;;;;;;5073670;28;20965;-81
2023/04/21 04:41:48;;;;;;;6.83;1.53;;;3.90;99.90;;;;;;5073391;28;20472;-81
2023/04/21 04:44:16;;;;;;;2.03;1.00;;;3.90;99.90;;;;;;5073424;28;20445;-81
2023/04/21 04:46:44;;;;;;;1.47;0.60;;;3.90;99.90;;;;;;5073292;28;20572;-81
2023/04/21 04:49:12;;;;;;;0.60;0.60;;;3.90;99.90;;;;;;5073292;28;20502;-81
2023/04/21 04:51:39;;;;;;;1.33;1.23;;;3.90;99.90;;;;;;5073232;28;20473;-81
2023/04/21 04:54:05;;;;;;;3.20;1.13;;;4.00;99.90;;;;;;5073019;28;20942;-81
2023/04/21 04:56:32;;;;;;;1.67;0.60;;;4.00;99.90;;;;;;5072951;28;20960;-81
2023/04/21 04:58:59;;;;;;;1.27;1.17;;;4.00;99.90;;;;;;5072933;28;21011;-81
2023/04/21 05:01:29;;;;;;;1.03;0.70;;;4.00;99.90;;;;;;5072745;28;20492;-81
2023/04/21 05:03:56;;;;;;;1.67;1.57;;;4.00;99.90;;;;;;5072813;28;20964;-81
2023/04/21 05:06:25;;;;;;;0.97;0.77;;;4.00;99.90;;;;;;5073152;28;20482;-81
2023/04/21 05:08:51;;;;;;;0.90;0.37;;;4.10;99.90;;;;;;5073228;28;20507;-82
2023/04/21 05:11:18;;;;;;;2.13;1.10;;;4.10;99.90;;;;;;5072915;28;20833;-82
2023/04/21 05:13:45;;;;;;;5.83;1.97;;;4.10;99.90;;;;;;5073432;28;20430;-82
2023/04/21 05:16:11;;;;;;;3.10;1.00;;;4.20;99.90;;;;;;5073289;28;20443;-82
2023/04/21 05:18:38;;;;;;;1.10;0.60;;;4.20;99.90;;;;;;5073056;28;20438;-82
2023/04/21 05:21:05;;;;;;;3.40;1.60;;;4.30;99.90;;;;;;5074623;28;20495;-82
2023/04/21 05:23:33;;;;;;;0.70;0.70;;;4.40;99.90;;;;;;5076716;28;20449;-83
2023/04/21 05:26:00;;;;;;;0.83;0.83;;;4.50;99.90;;;;;;5076684;28;20485;-83
2023/04/21 05:28:28;;;;;;;4.13;1.50;;;4.60;99.90;;;;;;5077035;28;20449;-83
2023/04/21 05:30:55;;;;;;;2.17;1.90;;;4.60;99.90;;;;;;5076880;28;20606;-82
2023/04/21 05:33:22;;;;;;;4.13;1.70;;;4.70;99.90;;;;;;5076873;28;20449;-83
2023/04/21 05:35:49;;;;;;;1.57;1.03;;;4.80;99.90;;;;;;5076668;28;20446;-83
2023/04/21 05:38:15;;;;;;;1.57;1.40;;;4.80;99.90;;;;;;5076454;28;20805;-83
2023/04/21 05:40:44;;;;;;;3.50;1.03;;;4.80;99.90;;;;;;5076210;28;20473;-83
2023/04/21 05:43:10;;;;;;;0.80;0.70;;;4.80;99.90;;;;;;5076524;28;20453;-83
2023/04/21 05:45:39;;;;;;;1.63;1.53;;;4.90;99.90;;;;;;5076446;28;20445;-83
2023/04/21 05:48:06;;;;;;;1.97;1.77;;;4.80;99.90;;;;;;5076462;28;20445;-83
2023/04/21 05:50:34;;;;;;;0.57;0.57;;;4.80;99.90;;;;;;5076333;28;20523;-83
2023/04/21 05:53:01;;;;;;;2.47;1.87;;;4.80;99.90;;;;;;5076341;28;20805;-83
2023/04/21 05:55:28;;;;;;;8.23;2.67;;;4.80;99.90;;;;;;5076004;28;20460;-83
2023/04/21 05:57:56;;;;;;;1.57;0.77;;;4.80;99.90;;;;;;5076361;28;20441;-83
2023/04/21 06:00:23;;;;;;;2.10;1.70;;;4.80;99.90;;;;;;5075844;28;20492;-82
2023/04/21 06:02:50;;;;;;;1.90;1.37;;;4.90;99.90;;;;;;5076197;28;20441;-83
2023/04/21 06:05:17;;;;;;;1.00;1.00;;;5.00;99.90;;;;;;5076060;28;20457;-83
2023/04/21 06:07:43;;;;;;;1.40;0.60;;;5.10;99.90;;;;;;5076032;28;20477;-83
2023/04/21 06:10:11;;;;;;;1.70;1.20;;;5.20;99.90;;;;;;5076130;28;20475;-83
2023/04/21 06:12:38;;;;;;;2.30;1.00;;;5.30;99.90;;;;;;5075883;28;20453;-83
2023/04/21 06:15:07;;;;;;;1.27;1.20;;;5.40;99.90;;;;;;5076125;28;20449;-83
2023/04/21 06:17:34;;;;;;;3.30;1.83;;;5.30;99.90;;;;;;5076112;28;20441;-83
2023/04/21 06:20:00;;;;;;;1.43;1.13;;;5.50;99.90;;;;;;5076014;28;21038;-83
2023/04/21 06:22:27;;;;;;;2.57;1.70;;;5.50;99.90;;;;;;5075776;28;20445;-83
2023/04/21 06:24:54;;;;;;;1.83;1.53;;;5.60;99.90;;;;;;5075703;28;20957;-83
2023/04/21 06:27:21;;;;;;;1.30;1.03;;;5.60;99.90;;;;;;5075933;28;20470;-83
2023/04/21 06:29:47;;;;;;;4.20;1.40;;;5.70;99.90;;;;;;5075966;28;20460;-82
2023/04/21 06:32:15;;;;;;;3.10;1.40;;;5.90;99.90;;;;;;5075696;28;20437;-83
2023/04/21 06:34:42;;;;;;;5.73;1.20;;;6.00;99.90;;;;;;5075557;28;20527;-82
2023/04/21 06:37:09;;;;;;;1.57;0.80;;;6.20;99.90;;;;;;5075763;28;20461;-82
2023/04/21 06:39:36;;;;;;;1.30;1.13;;;6.30;99.90;;;;;;5075661;28;20453;-82
2023/04/21 06:42:02;;;;;;;3.03;1.97;;;6.70;99.90;;;;;;5075650;28;20469;-83
2023/04/21 06:44:31;;;;;;;1.10;0.70;;;7.20;99.90;;;;;;5075726;28;20445;-83
2023/04/21 06:46:58;;;;;;;1.23;1.13;;;8.00;99.90;;;;;;5075678;28;20505;-83
2023/04/21 06:49:26;;;;;;;1.73;0.97;;;8.90;99.90;;;;;;5075586;28;20456;-83
2023/04/21 06:51:52;;;;;;;3.37;1.50;;;9.70;99.90;;;;;;5075580;28;20472;-83
2023/04/21 06:54:19;;;;;;;4.93;3.23;;;10.50;99.90;;;;;;5075415;28;20955;-83
2023/04/21 06:56:46;;;;;;;1.23;1.13;;;11.40;99.90;;;;;;5075464;28;20450;-83
2023/04/21 06:59:13;;;;;;;3.03;1.57;;;11.90;99.90;;;;;;5075504;28;20845;-83
2023/04/21 07:01:40;;;;;;;3.17;2.60;;;12.60;99.90;;;;;;5075020;28;20488;-84
2023/04/21 07:04:06;;;;;;;3.63;1.60;;;13.40;99.90;;;;;;5075271;28;20437;-84
2023/04/21 07:06:34;;;;;;;3.07;1.60;;;13.60;99.90;;;;;;5075346;28;20556;-83
2023/04/21 07:09:01;;;;;;;3.87;2.53;;;13.70;99.90;;;;;;5075004;28;20457;-83
2023/04/21 07:11:28;;;;;;;7.40;2.90;;;13.90;99.90;;;;;;5074948;28;20477;-83
2023/04/21 07:13:55;;;;;;;2.93;2.63;;;14.40;99.90;;;;;;5075166;28;20445;-83
2023/04/21 07:16:23;;;;;;;8.03;3.70;;;15.60;99.90;;;;;;5075482;28;20948;-83
2023/04/21 07:18:49;;;;;;;8.37;3.13;;;16.90;99.90;;;;;;5075307;28;20458;-83
2023/04/21 07:21:16;;;;;;;3.00;2.23;;;18.50;99.90;;;;;;5074878;28;20470;-83
2023/04/21 07:23:44;;;;;;;8.87;2.90;;;18.70;99.90;;;;;;5074961;28;20438;-83
2023/04/21 07:26:11;;;;;;;2.97;2.50;;;18.10;99.90;;;;;;5074811;28;20449;-84
2023/04/21 07:28:39;;;;;;;8.23;3.80;;;16.80;99.90;;;;;;5074577;28;20458;-83
2023/04/21 07:31:06;;;;;;;5.70;3.57;;;15.70;99.90;;;;;;5074117;28;20477;-83
2023/04/21 07:33:33;;;;;;;3.90;2.90;;;15.00;99.90;;;;;;5074565;28;20457;-83
2023/04/21 07:36:00;;;;;;;7.80;3.50;;;14.60;99.90;;;;;;5074365;28;20452;-82
2023/04/21 07:38:26;;;;;;;7.47;3.63;;;14.40;99.90;;;;;;5074329;28;20442;-82
2023/04/21 07:40:55;;;;;;;4.93;3.00;;;14.60;99.90;;;;;;5074297;28;20473;-81
2023/04/21 07:43:21;;;;;;;4.80;2.37;;;15.00;99.90;;;;;;5073739;28;20523;-79
2023/04/21 07:45:50;;;;;;;5.57;2.43;;;15.80;99.90;;;;;;5074142;28;20453;-78
2023/04/21 07:48:17;;;;;;;6.00;3.30;;;17.30;99.90;;;;;;5073719;28;20488;-79
2023/04/21 07:50:44;;;;;;;5.63;3.57;;;18.80;99.90;;;;;;5074062;28;20473;-81
2023/04/21 07:53:11;;;;;;;6.63;3.50;;;20.30;99.90;;;;;;5074407;28;20514;-80
2023/04/21 07:55:37;;;;;;;4.00;2.87;;;21.60;96.60;;;;;;5073920;28;20444;-80
2023/04/21 07:58:06;;;;;;;4.07;3.10;;;22.50;91.70;;;;;;5073621;28;20967;-80
2023/04/21 08:00:33;;;;;;;5.15;3.35;;;23.30;88.30;;;;;;5073528;28;20239;-80
2023/04/21 08:03:00;;;;;;;4.20;2.67;;;23.80;80.50;;;;;;5073906;28;20206;-80
2023/04/21 08:05:28;;;;;;;5.88;3.67;;;24.60;78.20;;;;;;5073853;28;20289;-80
2023/04/21 08:07:54;;;;;;;6.47;3.55;;;25.80;73.80;;;;;;5073726;28;20226;-80
2023/04/21 08:10:21;;;;;;;4.47;3.15;;;26.70;67.60;;;;;;5074186;28;20223;-80
2023/04/21 08:12:48;;;;;;;4.00;2.97;;;27.50;64.60;;;;;;5073778;28;20213;-80
2023/04/21 08:15:16;;;;;;;4.85;3.20;;;28.00;60.40;;;;;;5073396;28;20696;-81
2023/04/21 08:17:43;;;;;;;3.22;2.92;;;28.00;57.60;;;;;;5073540;28;20559;-81
2023/04/21 08:20:11;;;;;;;3.08;2.75;;;28.10;57.20;;;;;;5073621;28;20222;-81
2023/04/21 08:22:37;;;;;;;2.67;1.83;;;28.30;57.30;;;;;;5073686;28;20195;-81
2023/04/21 08:25:05;;;;;;;3.15;2.67;;;28.30;54.10;;;;;;5073226;28;20572;-81
2023/04/21 08:27:32;;;;;;;4.07;3.08;;;28.00;55.60;;;;;;5073517;28;20218;-81
2023/04/21 08:29:59;;;;;;;3.90;3.10;;;27.70;55.80;;;;;;5073451;28;20203;-81
2023/04/21 08:32:28;;;;;;;2.63;2.35;;;27.30;56.50;;;;;;5073237;28;20217;-81
2023/04/21 08:34:55;;;;;;;3.35;2.72;;;26.90;55.20;;;;;;5073215;28;20709;-81
2023/04/21 08:37:22;;;;;;;2.47;2.28;;;25.30;56.80;;;;;;5073393;28;20206;-81
2023/04/21 08:39:50;;;;;;;2.30;2.00;;;24.70;58.80;;;;;;5073122;28;20566;-81
2023/04/21 08:42:17;;;;;;;2.38;2.15;;;24.80;58.60;;;;;;5073436;28;20207;-81
2023/04/21 08:44:44;;;;;;;3.03;1.92;;;24.00;59.30;;;;;;5073382;28;20202;-81
2023/04/21 08:47:12;;;;;;;2.13;1.92;;;23.50;59.20;;;;;;5073313;28;20277;-81
2023/04/21 08:49:43;;;;;;;4.70;2.65;;;22.30;61.70;;;;;;5073394;28;20199;-80
2023/04/21 08:52:12;;;;;;;3.95;2.40;;;21.00;64.30;;;;;;5073313;28;20224;-80
2023/04/21 08:54:40;;;;;;;2.50;1.77;;;20.60;66.50;;;;;;5073411;28;20231;-81
2023/04/21 08:57:07;;;;;;;2.40;1.70;;;20.40;68.70;;;;;;5076553;28;20199;-84
2023/04/21 08:59:34;;;;;;;3.90;1.63;;;21.00;66.60;;;;;;5077392;28;20448;-84
2023/04/21 09:02:08;;;;;;;2.40;1.63;;;21.40;66.50;;;;;;5077202;28;20481;-84
2023/04/21 09:04:35;;;;;;;4.97;2.23;;;21.50;66.50;;;;;;5077506;28;20510;-84
2023/04/21 09:07:03;;;;;;;2.03;1.83;;;21.50;67.00;;;;;;5077308;28;20487;-84
2023/04/21 09:09:30;;;;;;;2.20;1.40;;;20.80;66.20;;;;;;5077191;28;20806;-84
2023/04/21 09:11:58;;;;;;;2.07;1.90;;;20.20;68.30;;;;;;5077127;28;20480;-84
2023/04/21 09:14:31;;;;;;;1.40;1.30;;;20.10;70.00;;;;;;5077178;28;20817;-84
2023/04/21 09:17:03;;;;;;;1.60;1.10;;;20.30;70.90;;;;;;5077582;28;20445;-85
2023/04/21 09:19:33;;;;;;;2.60;1.97;;;20.40;69.90;;;;;;5077038;28;20962;-84
2023/04/21 09:22:00;;;;;;;2.07;1.87;;;20.30;70.80;;;;;;5077287;28;20466;-84
2023/04/21 09:24:28;;;;;;;1.60;1.27;;;19.90;71.40;;;;;;5076747;28;20445;-84
2023/04/21 09:26:55;;;;;;;2.97;2.60;;;19.70;74.10;;;;;;5076505;28;20964;-83
2023/04/21 09:29:23;;;;;;;4.47;2.70;;;19.70;73.50;;;;;;5076961;28;20449;-83
2023/04/21 09:31:51;;;;;;;1.50;1.03;;;19.90;73.40;;;;;;5076800;28;20468;-84
2023/04/21 09:34:23;;;;;;;2.07;1.50;;;19.90;73.90;;;;;;5076764;28;20449;-84
2023/04/21 09:36:59;;;;;;;2.87;1.53;;;19.80;74.70;;;;;;5076752;28;20445;-84
2023/04/21 09:39:28;;;;;;;3.87;1.33;;;19.40;73.40;;;;;;5076396;28;20806;-84
2023/04/21 09:41:56;;;;;;;1.73;1.63;;;19.50;75.90;;;;;;5076561;28;20472;-83
2023/04/21 09:44:23;;;;;;;1.73;1.60;;;19.80;75.70;;;;;;5076536;28;20483;-83
2023/04/21 09:46:51;;;;;;;1.40;1.27;;;19.60;74.30;;;;;;5076488;28;20441;-84
2023/04/21 09:49:18;;;;;;;1.50;1.33;;;20.00;75.10;;;;;;5076477;28;20456;-84
2023/04/21 09:51:45;;;;;;;2.23;0.93;;;20.60;73.30;;;;;;5076097;28;20491;-83
2023/04/21 09:54:16;;;;;;;2.47;1.77;;;20.80;73.10;;;;;;5076368;28;20453;-83
2023/04/21 09:56:48;;;;;;;1.83;1.73;;;20.90;73.10;;;;;;5076374;28;20877;-83
2023/04/21 09:59:19;;;;;;;1.90;1.10;;;20.70;72.40;;;;;;5076013;28;20801;-83
2023/04/21 10:01:49;;;;;;;2.80;1.50;;;20.90;71.50;;;;;;5075721;28;20853;-83
2023/04/21 10:04:18;;;;;;;2.37;1.70;;;20.60;73.30;;;;;;5076261;28;20452;-83
2023/04/21 10:06:46;;;;;;;1.27;1.00;;;20.40;73.70;;;;;;5075768;28;20434;-84
2023/04/21 10:09:16;;;;;;;3.20;1.00;;;19.90;72.10;;;;;;5076041;28;20484;-83
2023/04/21 10:11:44;;;;;;;2.13;1.20;;;19.50;75.40;;;;;;5075977;28;20473;-83
2023/04/21 10:14:11;;;;;;;1.10;1.00;;;19.60;77.30;;;;;;5076297;28;20448;-83
2023/04/21 10:16:38;;;;;;;1.17;1.07;;;19.80;75.40;;;;;;5075716;28;20810;-84
2023/04/21 10:19:23;;;;;;;0.67;0.67;;;19.90;78.10;;;;;;5075914;28;20446;-84
2023/04/21 10:21:50;;;;;;;3.27;1.70;;;19.90;75.60;;;;;;5075881;28;20476;-83
2023/04/21 10:24:16;;;;;;;2.80;1.23;;;19.80;75.40;;;;;;5075916;28;20800;-83
2023/04/21 10:26:45;;;;;;;3.23;1.60;;;19.70;75.10;;;;;;5075491;28;20438;-84
2023/04/21 10:29:11;;;;;;;1.30;1.10;;;19.70;76.70;;;;;;5075383;28;20473;-84
2023/04/21 10:31:50;;;;;;;4.20;1.03;;;20.00;74.80;;;;;;5075688;28;20469;-84
2023/04/21 10:34:28;;;;;;;1.03;0.80;;;20.30;74.70;;;;;;5075806;28;20438;-84
2023/04/21 10:37:17;;;;;;;1.50;0.90;;;20.80;74.20;;;;;;5075444;28;20410;-84
2023/04/21 10:39:55;;;;;;;1.63;1.10;;;21.20;73.60;;;;;;5075530;28;20438;-84
2023/04/21 10:42:26;;;;;;;1.30;1.20;;;21.90;72.10;;;;;;5075525;28;20448;-84
2023/04/21 10:45:01;;;;;;;1.90;1.27;;;22.50;70.00;;;;;;5075540;28;20437;-84
2023/04/21 10:47:30;;;;;;;2.03;1.17;;;22.80;70.80;;;;;;5075347;28;20474;-85
2023/04/21 10:49:58;;;;;;;3.23;1.30;;;23.00;70.40;;;;;;5075285;28;20436;-82
2023/04/21 10:52:32;;;;;;;2.30;1.30;;;23.40;69.90;;;;;;5075393;28;20452;-83
2023/04/21 10:55:09;;;;;;;2.40;1.47;;;23.50;68.70;;;;;;5075571;28;20433;-83
2023/04/21 10:57:37;;;;;;;1.23;1.00;;;23.70;68.90;;;;;;5074939;28;20596;-83
2023/04/21 11:00:07;;;;;;;1.13;1.00;;;23.70;67.20;;;;;;5075075;28;20234;-83
2023/04/21 11:02:35;;;;;;;2.60;1.15;;;24.00;67.20;;;;;;5074979;28;20187;-83
2023/04/21 11:05:02;;;;;;;2.60;1.40;;;24.10;67.60;;;;;;5075216;28;20211;-83
2023/04/21 11:07:29;;;;;;;1.75;1.65;;;23.50;69.30;;;;;;5074914;28;20198;-83
2023/04/21 11:09:58;;;;;;;1.55;1.45;;;23.00;69.20;;;;;;5075397;28;20551;-83
2023/04/21 11:12:28;;;;;;;1.60;1.17;;;22.30;69.30;;;;;;5075136;28;20280;-83
2023/04/21 11:14:57;;;;;;;2.73;1.23;;;21.30;71.20;;;;;;5075325;28;20183;-82
2023/04/21 11:17:24;;;;;;;1.80;1.63;;;20.20;76.70;;;;;;5075258;28;20453;-82
2023/04/21 11:19:53;;;;;;;5.13;2.27;;;19.60;76.40;;;;;;5074135;28;20463;-82
2023/04/21 11:22:22;;;;;;;3.67;1.97;;;19.00;78.60;;;;;;5074776;28;20445;-82
2023/04/21 11:24:53;;;;;;;2.23;1.53;;;18.70;80.80;;;;;;5074721;28;20476;-83
2023/04/21 11:27:21;;;;;;;3.03;1.60;;;18.40;83.20;;;;;;5074478;28;20419;-83
2023/04/21 11:29:49;;;;;;;3.73;1.87;;;18.40;83.80;;;;;;5074962;28;20851;-82
2023/04/21 11:32:18;;;;;;;3.27;2.10;;;18.00;83.50;;;;;;5074323;28;20429;-83
2023/04/21 11:34:45;;;;;;;2.27;1.30;;;17.90;85.00;;;;;;5074248;28;20418;-82
2023/04/21 11:37:16;;;;;;;3.03;2.10;;;17.80;84.10;;;;;;5074287;28;20458;-82
2023/04/21 11:39:43;;;;;;;4.33;1.67;;;17.80;84.90;;;;;;5074241;28;20442;-82
2023/04/21 11:42:11;;;;;;;3.60;1.57;;;17.80;85.50;;;;;;5073989;28;20812;-82
2023/04/21 11:44:40;;;;;;;2.67;1.30;;;17.90;87.30;;;;;;5074205;28;20454;-82
2023/04/21 11:47:15;;;;;;;1.90;1.07;;;18.00;86.00;;;;;;5073866;28;20941;-82
2023/04/21 11:49:47;;;;;;;2.00;1.27;;;17.70;87.50;;;;;;5073629;28;20476;-82
2023/04/21 11:52:22;;;;;;;1.27;1.17;;;17.60;87.90;;;;;;5073917;28;20462;-82
2023/04/21 11:54:51;;;;;;;3.20;1.70;;;17.40;89.50;;;;;;5073655;28;20439;-82
2023/04/21 11:57:19;;;;;;;2.53;1.83;;;17.30;90.30;;;;;;5074048;28;20441;-82
2023/04/21 11:59:46;;;;;;;1.47;1.37;;;17.20;90.20;;;;;;5073500;28;20450;-83
2023/04/21 12:02:21;;;;;;;1.80;1.70;;;17.30;90.80;;;;;;5074063;28;20847;-82
2023/04/21 12:05:02;;;;;;;2.17;1.47;;;17.20;90.80;;;;;;5073715;28;20954;-83
2023/04/21 12:07:31;;;;;;;4.30;1.17;;;17.10;91.30;;;;;;5076015;28;20856;-80
2023/04/21 12:09:58;;;;;;;2.60;1.47;;;17.10;91.40;;;;;;5073593;28;20473;-80
2023/04/21 12:12:25;;;;;;;1.80;1.00;;;17.10;91.00;;;;;;5073678;28;20515;-80
2023/04/21 12:14:52;;;;;;;2.97;1.37;;;17.10;91.50;;;;;;5073311;28;20503;-82
2023/04/21 12:17:20;;;;;;;2.57;1.30;;;17.00;90.80;;;;;;5073767;28;20476;-83
2023/04/21 12:19:47;;;;;;;2.13;1.60;;;16.90;91.70;;;;;;5073664;28;20437;-83
2023/04/21 12:22:17;;;;;;;3.13;1.70;;;16.90;92.80;;;;;;5073429;28;20433;-82
2023/04/21 12:24:44;;;;;;;1.77;1.50;;;16.80;92.50;;;;;;5073348;28;20437;-82
2023/04/21 12:27:11;;;;;;;4.07;2.23;;;16.70;92.50;;;;;;5073575;28;20450;-83
2023/04/21 12:29:40;;;;;;;2.83;1.40;;;16.70;93.10;;;;;;5073167;28;20490;-84
2023/04/21 12:32:07;;;;;;;4.23;1.83;;;16.70;93.00;;;;;;5073491;28;20500;-83
2023/04/21 12:34:34;;;;;;;3.20;1.43;;;16.50;92.90;;;;;;5073226;28;20945;-83
2023/04/21 12:37:01;;;;;;;2.07;1.47;;;16.30;93.40;;;;;;5073506;28;20457;-83
2023/04/21 12:39:30;;;;;;;2.43;1.40;;;16.30;94.00;;;;;;5073631;28;20515;-83
2023/04/21 12:41:57;;;;;;;4.43;2.20;;;16.30;94.00;;;;;;5073326;28;20465;-84
2023/04/21 12:44:23;;;;;;;2.63;1.80;;;16.30;94.40;;;;;;5073180;28;20430;-83
2023/04/21 12:46:50;;;;;;;2.33;1.70;;;16.10;94.70;;;;;;5073410;28;20461;-84
2023/04/21 12:49:17;;;;;;;5.90;2.10;;;16.10;95.30;;;;;;5073620;28;20488;-84
2023/04/21 12:51:45;;;;;;;1.63;1.20;;;16.00;95.60;;;;;;5073942;28;20454;-84
2023/04/21 12:54:12;;;;;;;2.80;2.00;;;15.90;95.80;;;;;;5073740;28;20532;-84
2023/04/21 12:56:41;;;;;;;2.50;2.20;;;16.00;96.00;;;;;;5073383;28;20492;-84